sensor_id;sensor_type;location;lat;lon;timestamp;temperature;humidity
2651;DHT22;1335;48.180;16.342;2022-09-25T00:02:02;12.60;99.90
2651;DHT22;1335;48.180;16.342;2022-09-25T00:04:30;12.50;99.90
2651;DHT22;1335;48.180;16.342;2022-09-25T00:06:59;12.70;99.90
2651;DHT22;1335;48.180;16.342;2022-09-25T00:09:27;12.20;99.90
2651;DHT22;1335;48.180;16.342;2022-09-25T00:11:54;12.10;99.90
2651;DHT22;1335;48.180;16.342;2022-09-25T00:14:22;12.90;99.90
2651;DHT22;1335;48.180;16.342;2022-09-25T00:16:50;12.30;99.90
2651;DHT22;1335;48.180;16.342;2022-09-25T00:19:21;12.00;99.90
2651;DHT22;1335;48.180;16.342;2022-09-25T00:22:05;12.80;99.90
2651;DHT22;1335;48.180;16.342;2022-09-25T00:24:33;12.50;99.90
2651;DHT22;1335;48.180;16.342;2022-09-25T00:27:01;12.30;99.90
2651;DHT22;1335;48.180;16.342;2022-09-25T00:29:31;12.30;99.90
2651;DHT22;1335;48.180;16.342;2022-09-25T00:31:58;12.30;99.90
2651;DHT22;1335;48.180;16.342;2022-09-25T00:34:27;12.50;99.90
2651;DHT22;1335;48.180;16.342;2022-09-25T00:36:55;12.10;99.90
2651;DHT22;1335;48.180;16.342;2022-09-25T00:39:23;13.10;99.90
2651;DHT22;1335;48.180;16.342;2022-09-25T00:41:50;12.50;99.90
2651;DHT22;1335;48.180;16.342;2022-09-25T00:44:50;12.20;99.90
2651;DHT22;1335;48.180;16.342;2022-09-25T00:47:25;12.50;99.90
2651;DHT22;1335;48.180;16.342;2022-09-25T00:49:55;12.30;99.90
2651;DHT22;1335;48.180;16.342;2022-09-25T00:52:23;12.80;99.90
2651;DHT22;1335;48.180;16.342;2022-09-25T00:54:54;12.50;99.90
2651;DHT22;1335;48.180;16.342;2022-09-25T00:57:25;12.70;99.90
2651;DHT22;1335;48.180;16.342;2022-09-25T00:59:57;12.40;99.90
2651;DHT22;1335;48.180;16.342;2022-09-25T01:02:28;13.40;99.90
2651;DHT22;1335;48.180;16.342;2022-09-25T01:05:00;12.20;99.90
2651;DHT22;1335;48.180;16.342;2022-09-25T01:07:30;12.40;99.90
2651;DHT22;1335;48.180;16.342;2022-09-25T01:09:58;12.40;99.90
2651;DHT22;1335;48.180;16.342;2022-09-25T01:12:27;12.40;99.90
2651;DHT22;1335;48.180;16.342;2022-09-25T01:14:54;12.20;99.90
2651;DHT22;1335;48.180;16.342;2022-09-25T01:17:26;12.50;99.90
2651;DHT22;1335;48.180;16.342;2022-09-25T01:20:06;11.80;99.90
2651;DHT22;1335;48.180;16.342;2022-09-25T01:22:49;12.30;99.90
2651;DHT22;1335;48.180;16.342;2022-09-25T01:25:30;12.40;99.90
2651;DHT22;1335;48.180;16.342;2022-09-25T01:28:17;12.20;99.90
2651;DHT22;1335;48.180;16.342;2022-09-25T01:30:54;12.20;99.90
2651;DHT22;1335;48.180;16.342;2022-09-25T01:33:26;11.80;99.90
2651;DHT22;1335;48.180;16.342;2022-09-25T01:36:00;12.30;99.90
2651;DHT22;1335;48.180;16.342;2022-09-25T01:38:33;12.60;99.90
2651;DHT22;1335;48.180;16.342;2022-09-25T01:41:05;12.50;99.90
2651;DHT22;1335;48.180;16.342;2022-09-25T01:43:37;12.30;99.90
2651;DHT22;1335;48.180;16.342;2022-09-25T01:46:12;12.10;99.90
2651;DHT22;1335;48.180;16.342;2022-09-25T01:48:41;12.70;99.90
2651;DHT22;1335;48.180;16.342;2022-09-25T01:51:13;12.50;99.90
2651;DHT22;1335;48.180;16.342;2022-09-25T01:53:45;12.70;99.90
2651;DHT22;1335;48.180;16.342;2022-09-25T01:56:20;12.10;99.90
2651;DHT22;1335;48.180;16.342;2022-09-25T01:59:04;12.40;99.90
2651;DHT22;1335;48.180;16.342;2022-09-25T02:01:37;12.50;99.90
2651;DHT22;1335;48.180;16.342;2022-09-25T02:04:11;12.40;99.90
2651;DHT22;1335;48.180;16.342;2022-09-25T02:06:44;12.20;99.90
2651;DHT22;1335;48.180;16.342;2022-09-25T02:09:24;12.40;99.90
2651;DHT22;1335;48.180;16.342;2022-09-25T02:11:57;12.00;99.90
2651;DHT22;1335;48.180;16.342;2022-09-25T02:14:28;11.70;99.90
2651;DHT22;1335;48.180;16.342;2022-09-25T02:17:03;12.30;99.90
2651;DHT22;1335;48.180;16.342;2022-09-25T02:19:30;11.90;99.90
2651;DHT22;1335;48.180;16.342;2022-09-25T02:22:17;12.40;99.90
2651;DHT22;1335;48.180;16.342;2022-09-25T02:24:48;12.00;99.90
2651;DHT22;1335;48.180;16.342;2022-09-25T02:27:19;12.40;99.90
2651;DHT22;1335;48.180;16.342;2022-09-25T02:29:47;12.10;99.90
2651;DHT22;1335;48.180;16.342;2022-09-25T02:32:18;12.80;99.90
2651;DHT22;1335;48.180;16.342;2022-09-25T02:34:47;12.80;99.90
2651;DHT22;1335;48.180;16.342;2022-09-25T02:37:16;12.80;99.90
2651;DHT22;1335;48.180;16.342;2022-09-25T02:39:48;12.40;99.90
2651;DHT22;1335;48.180;16.342;2022-09-25T02:42:28;13.00;99.90
2651;DHT22;1335;48.180;16.342;2022-09-25T02:45:08;13.10;99.90
2651;DHT22;1335;48.180;16.342;2022-09-25T02:47:47;12.20;99.90
2651;DHT22;1335;48.180;16.342;2022-09-25T02:50:23;12.30;99.90
2651;DHT22;1335;48.180;16.342;2022-09-25T02:52:58;12.30;99.90
2651;DHT22;1335;48.180;16.342;2022-09-25T02:55:38;12.30;99.90
2651;DHT22;1335;48.180;16.342;2022-09-25T02:58:10;12.50;99.90
2651;DHT22;1335;48.180;16.342;2022-09-25T03:00:41;12.30;99.90
2651;DHT22;1335;48.180;16.342;2022-09-25T03:03:12;12.20;99.90
2651;DHT22;1335;48.180;16.342;2022-09-25T03:05:41;12.60;99.90
2651;DHT22;1335;48.180;16.342;2022-09-25T03:08:09;12.40;99.90
2651;DHT22;1335;48.180;16.342;2022-09-25T03:10:54;12.20;99.90
2651;DHT22;1335;48.180;16.342;2022-09-25T03:13:24;12.70;99.90
2651;DHT22;1335;48.180;16.342;2022-09-25T03:15:58;12.50;99.90
2651;DHT22;1335;48.180;16.342;2022-09-25T03:18:28;12.30;99.90
2651;DHT22;1335;48.180;16.342;2022-09-25T03:20:55;11.90;99.90
2651;DHT22;1335;48.180;16.342;2022-09-25T03:23:23;12.20;99.90
2651;DHT22;1335;48.180;16.342;2022-09-25T03:25:52;11.80;99.90
2651;DHT22;1335;48.180;16.342;2022-09-25T03:28:20;12.00;99.90
2651;DHT22;1335;48.180;16.342;2022-09-25T03:30:58;11.70;99.90
2651;DHT22;1335;48.180;16.342;2022-09-25T03:33:28;11.80;99.90
2651;DHT22;1335;48.180;16.342;2022-09-25T03:36:03;12.00;99.90
2651;DHT22;1335;48.180;16.342;2022-09-25T03:38:31;12.10;99.90
2651;DHT22;1335;48.180;16.342;2022-09-25T03:40:58;12.60;99.90
2651;DHT22;1335;48.180;16.342;2022-09-25T03:43:25;12.00;99.90
2651;DHT22;1335;48.180;16.342;2022-09-25T03:45:52;11.50;99.90
2651;DHT22;1335;48.180;16.342;2022-09-25T03:48:19;12.00;99.90
2651;DHT22;1335;48.180;16.342;2022-09-25T03:50:50;11.70;99.90
2651;DHT22;1335;48.180;16.342;2022-09-25T03:53:18;12.30;99.90
2651;DHT22;1335;48.180;16.342;2022-09-25T03:55:45;12.20;99.90
2651;DHT22;1335;48.180;16.342;2022-09-25T03:58:14;11.80;99.90
2651;DHT22;1335;48.180;16.342;2022-09-25T04:00:47;12.30;99.90
2651;DHT22;1335;48.180;16.342;2022-09-25T04:03:19;11.70;99.90
2651;DHT22;1335;48.180;16.342;2022-09-25T04:05:54;11.90;99.90
2651;DHT22;1335;48.180;16.342;2022-09-25T04:08:28;11.90;99.90
2651;DHT22;1335;48.180;16.342;2022-09-25T04:11:01;11.90;99.90
2651;DHT22;1335;48.180;16.342;2022-09-25T04:13:33;11.30;99.90
2651;DHT22;1335;48.180;16.342;2022-09-25T04:16:04;11.90;99.90
2651;DHT22;1335;48.180;16.342;2022-09-25T04:18:35;11.80;99.90
2651;DHT22;1335;48.180;16.342;2022-09-25T04:21:06;11.60;99.90
2651;DHT22;1335;48.180;16.342;2022-09-25T04:23:36;11.60;99.90
2651;DHT22;1335;48.180;16.342;2022-09-25T04:26:05;11.70;99.90
2651;DHT22;1335;48.180;16.342;2022-09-25T04:28:33;11.80;99.90
2651;DHT22;1335;48.180;16.342;2022-09-25T04:31:08;12.00;99.90
2651;DHT22;1335;48.180;16.342;2022-09-25T04:33:36;11.80;99.90
2651;DHT22;1335;48.180;16.342;2022-09-25T04:36:15;11.50;99.90
2651;DHT22;1335;48.180;16.342;2022-09-25T04:38:45;11.20;99.90
2651;DHT22;1335;48.180;16.342;2022-09-25T04:41:13;11.00;99.90
2651;DHT22;1335;48.180;16.342;2022-09-25T04:43:44;11.30;99.90
2651;DHT22;1335;48.180;16.342;2022-09-25T04:46:15;11.60;99.90
2651;DHT22;1335;48.180;16.342;2022-09-25T04:48:47;11.50;99.90
2651;DHT22;1335;48.180;16.342;2022-09-25T04:51:16;11.60;99.90
2651;DHT22;1335;48.180;16.342;2022-09-25T04:53:44;11.70;99.90
2651;DHT22;1335;48.180;16.342;2022-09-25T04:56:12;11.20;99.90
2651;DHT22;1335;48.180;16.342;2022-09-25T04:58:44;11.60;99.90
2651;DHT22;1335;48.180;16.342;2022-09-25T05:01:12;11.50;99.90
2651;DHT22;1335;48.180;16.342;2022-09-25T05:03:46;11.90;99.90
2651;DHT22;1335;48.180;16.342;2022-09-25T05:06:13;12.00;99.90
2651;DHT22;1335;48.180;16.342;2022-09-25T05:08:43;11.80;99.90
2651;DHT22;1335;48.180;16.342;2022-09-25T05:11:10;11.60;99.90
2651;DHT22;1335;48.180;16.342;2022-09-25T05:13:38;11.50;99.90
2651;DHT22;1335;48.180;16.342;2022-09-25T05:16:08;12.70;99.90
2651;DHT22;1335;48.180;16.342;2022-09-25T05:18:36;12.00;99.90
2651;DHT22;1335;48.180;16.342;2022-09-25T05:21:04;12.10;99.90
2651;DHT22;1335;48.180;16.342;2022-09-25T05:23:31;12.60;99.90
2651;DHT22;1335;48.180;16.342;2022-09-25T05:26:01;11.80;99.90
2651;DHT22;1335;48.180;16.342;2022-09-25T05:28:30;12.80;99.90
2651;DHT22;1335;48.180;16.342;2022-09-25T05:30:59;12.60;99.90
2651;DHT22;1335;48.180;16.342;2022-09-25T05:33:28;12.10;99.90
2651;DHT22;1335;48.180;16.342;2022-09-25T05:35:59;12.80;99.90
2651;DHT22;1335;48.180;16.342;2022-09-25T05:38:31;12.40;99.90
2651;DHT22;1335;48.180;16.342;2022-09-25T05:41:04;12.40;99.90
2651;DHT22;1335;48.180;16.342;2022-09-25T05:43:33;12.40;99.90
2651;DHT22;1335;48.180;16.342;2022-09-25T05:46:01;12.10;99.90
2651;DHT22;1335;48.180;16.342;2022-09-25T05:48:29;12.20;99.90
2651;DHT22;1335;48.180;16.342;2022-09-25T05:50:57;12.50;99.90
2651;DHT22;1335;48.180;16.342;2022-09-25T05:53:25;12.80;99.90
2651;DHT22;1335;48.180;16.342;2022-09-25T05:55:53;13.20;99.90
2651;DHT22;1335;48.180;16.342;2022-09-25T05:58:23;13.30;99.90
2651;DHT22;1335;48.180;16.342;2022-09-25T06:00:51;13.80;99.90
2651;DHT22;1335;48.180;16.342;2022-09-25T06:03:20;13.20;99.90
2651;DHT22;1335;48.180;16.342;2022-09-25T06:05:48;13.40;99.90
2651;DHT22;1335;48.180;16.342;2022-09-25T06:08:16;13.20;99.90
2651;DHT22;1335;48.180;16.342;2022-09-25T06:10:50;13.50;99.90
2651;DHT22;1335;48.180;16.342;2022-09-25T06:13:19;13.30;99.90
2651;DHT22;1335;48.180;16.342;2022-09-25T06:15:52;14.00;99.90
2651;DHT22;1335;48.180;16.342;2022-09-25T06:18:24;13.30;99.90
2651;DHT22;1335;48.180;16.342;2022-09-25T06:20:59;14.10;99.90
2651;DHT22;1335;48.180;16.342;2022-09-25T06:23:31;13.80;99.90
2651;DHT22;1335;48.180;16.342;2022-09-25T06:26:02;14.60;99.90
2651;DHT22;1335;48.180;16.342;2022-09-25T06:28:35;13.70;99.90
2651;DHT22;1335;48.180;16.342;2022-09-25T06:31:22;14.00;99.90
2651;DHT22;1335;48.180;16.342;2022-09-25T06:33:54;14.50;99.90
2651;DHT22;1335;48.180;16.342;2022-09-25T06:36:44;14.40;99.90
2651;DHT22;1335;48.180;16.342;2022-09-25T06:42:33;14.10;99.90
2651;DHT22;1335;48.180;16.342;2022-09-25T06:45:14;14.40;99.90
2651;DHT22;1335;48.180;16.342;2022-09-25T21:04:36;14.50;99.90
2651;DHT22;1335;48.180;16.342;2022-09-25T21:07:33;14.20;99.90
2651;DHT22;1335;48.180;16.342;2022-09-25T21:10:17;14.10;99.90
2651;DHT22;1335;48.180;16.342;2022-09-25T21:16:02;14.40;99.90
2651;DHT22;1335;48.180;16.342;2022-09-25T21:32:52;14.60;99.90
2651;DHT22;1335;48.180;16.342;2022-09-25T21:35:34;14.30;99.90
2651;DHT22;1335;48.180;16.342;2022-09-25T21:38:19;14.40;99.90
2651;DHT22;1335;48.180;16.342;2022-09-25T21:41:06;14.30;99.90
2651;DHT22;1335;48.180;16.342;2022-09-25T21:43:53;14.30;99.90
2651;DHT22;1335;48.180;16.342;2022-09-25T21:46:27;14.70;99.90
2651;DHT22;1335;48.180;16.342;2022-09-25T21:49:23;14.40;99.90
2651;DHT22;1335;48.180;16.342;2022-09-25T21:52:04;15.00;99.90
2651;DHT22;1335;48.180;16.342;2022-09-25T21:54:47;14.20;99.90
2651;DHT22;1335;48.180;16.342;2022-09-25T21:57:18;14.50;99.90
2651;DHT22;1335;48.180;16.342;2022-09-25T21:59:49;14.70;99.90
2651;DHT22;1335;48.180;16.342;2022-09-25T22:02:30;13.80;99.90
2651;DHT22;1335;48.180;16.342;2022-09-25T22:05:03;14.50;99.90
2651;DHT22;1335;48.180;16.342;2022-09-25T22:07:36;14.50;99.90
2651;DHT22;1335;48.180;16.342;2022-09-25T22:10:08;14.30;99.90
2651;DHT22;1335;48.180;16.342;2022-09-25T22:12:36;14.60;99.90
2651;DHT22;1335;48.180;16.342;2022-09-25T22:15:04;14.30;99.90
2651;DHT22;1335;48.180;16.342;2022-09-25T22:17:34;14.20;99.90
2651;DHT22;1335;48.180;16.342;2022-09-25T22:20:03;14.30;99.90
2651;DHT22;1335;48.180;16.342;2022-09-25T22:22:34;14.40;99.90
2651;DHT22;1335;48.180;16.342;2022-09-25T22:25:06;14.40;99.90
2651;DHT22;1335;48.180;16.342;2022-09-25T22:27:37;14.50;99.90
2651;DHT22;1335;48.180;16.342;2022-09-25T22:30:09;14.40;99.90
2651;DHT22;1335;48.180;16.342;2022-09-25T22:32:39;14.70;99.90
2651;DHT22;1335;48.180;16.342;2022-09-25T22:35:10;14.50;99.90
2651;DHT22;1335;48.180;16.342;2022-09-25T22:37:38;14.30;99.90
2651;DHT22;1335;48.180;16.342;2022-09-25T22:40:10;14.40;99.90
2651;DHT22;1335;48.180;16.342;2022-09-25T22:42:42;14.70;99.90
2651;DHT22;1335;48.180;16.342;2022-09-25T22:45:10;14.40;99.90
2651;DHT22;1335;48.180;16.342;2022-09-25T22:47:39;14.50;99.90
2651;DHT22;1335;48.180;16.342;2022-09-25T22:50:11;14.60;99.90
2651;DHT22;1335;48.180;16.342;2022-09-25T22:52:38;14.40;99.90
2651;DHT22;1335;48.180;16.342;2022-09-25T22:55:07;14.60;99.90
2651;DHT22;1335;48.180;16.342;2022-09-25T22:58:03;14.30;99.90
2651;DHT22;1335;48.180;16.342;2022-09-25T23:00:46;14.20;99.90
2651;DHT22;1335;48.180;16.342;2022-09-25T23:03:16;13.80;99.90
2651;DHT22;1335;48.180;16.342;2022-09-25T23:05:50;14.30;99.90
2651;DHT22;1335;48.180;16.342;2022-09-25T23:08:17;14.30;99.90
2651;DHT22;1335;48.180;16.342;2022-09-25T23:10:44;14.40;99.90
2651;DHT22;1335;48.180;16.342;2022-09-25T23:13:12;13.90;99.90
2651;DHT22;1335;48.180;16.342;2022-09-25T23:15:40;14.10;99.90
2651;DHT22;1335;48.180;16.342;2022-09-25T23:18:07;14.00;99.90
2651;DHT22;1335;48.180;16.342;2022-09-25T23:20:36;14.50;99.90
2651;DHT22;1335;48.180;16.342;2022-09-25T23:23:06;14.60;99.90
2651;DHT22;1335;48.180;16.342;2022-09-25T23:25:33;13.60;99.90
2651;DHT22;1335;48.180;16.342;2022-09-25T23:28:00;14.00;99.90
2651;DHT22;1335;48.180;16.342;2022-09-25T23:30:28;14.30;99.90
2651;DHT22;1335;48.180;16.342;2022-09-25T23:32:58;14.30;99.90
2651;DHT22;1335;48.180;16.342;2022-09-25T23:35:26;14.10;99.90
2651;DHT22;1335;48.180;16.342;2022-09-25T23:37:59;14.10;99.90
2651;DHT22;1335;48.180;16.342;2022-09-25T23:40:28;14.00;99.90
2651;DHT22;1335;48.180;16.342;2022-09-25T23:42:56;13.20;99.90
2651;DHT22;1335;48.180;16.342;2022-09-25T23:45:24;13.60;99.90
2651;DHT22;1335;48.180;16.342;2022-09-25T23:47:52;13.70;99.90
2651;DHT22;1335;48.180;16.342;2022-09-25T23:50:20;13.50;99.90
2651;DHT22;1335;48.180;16.342;2022-09-25T23:52:47;14.00;99.90
2651;DHT22;1335;48.180;16.342;2022-09-25T23:55:15;13.90;99.90
2651;DHT22;1335;48.180;16.342;2022-09-25T23:57:45;14.10;99.90
